Time,TemperatureF,DewpointF,PressureIn,WindDirection,WindDirectionDegrees,WindSpeedMPH,WindSpeedGustMPH,Humidity,HourlyPrecipIn,Conditions,Clouds,dailyrainin,SoftwareType,DateUTC
2013-02-16 00:09:00,22.8,18.7,30.21,NW,311,0.0,0.0,84,0.00,,,0.00,Wunderground v.1.15,2013-02-16 05:09:00,
2013-02-16 00:19:00,22.7,18.6,30.21,NW,311,0.0,0.0,84,0.00,,,0.00,Wunderground v.1.15,2013-02-16 05:19:00,
2013-02-16 00:24:00,22.7,18.6,30.20,NW,311,0.0,0.0,84,0.00,,,0.00,Wunderground v.1.15,2013-02-16 05:24:00,
2013-02-16 00:29:00,22.7,18.3,30.21,NW,311,0.0,0.0,83,0.00,,,0.00,Wunderground v.1.15,2013-02-16 05:29:00,
2013-02-16 00:39:00,22.6,18.2,30.20,NW,311,0.0,0.0,83,0.00,,,0.00,Wunderground v.1.15,2013-02-16 05:39:00,
2013-02-16 00:49:00,22.0,18.2,30.20,NW,311,0.0,0.0,85,0.00,,,0.00,Wunderground v.1.15,2013-02-16 05:49:00,
2013-02-16 00:59:00,21.4,18.1,30.20,NW,311,0.0,0.0,87,0.00,,,0.00,Wunderground v.1.15,2013-02-16 05:59:00,
2013-02-16 01:09:00,21.2,17.7,30.20,NW,311,0.0,0.0,86,0.00,,,0.00,Wunderground v.1.15,2013-02-16 06:09:00,
2013-02-16 01:19:00,21.3,17.8,30.20,NW,311,0.0,0.0,86,0.00,,,0.00,Wunderground v.1.15,2013-02-16 06:19:00,
2013-02-16 01:29:00,21.1,17.8,30.20,NW,311,0.0,0.0,87,0.00,,,0.00,Wunderground v.1.15,2013-02-16 06:29:00,
2013-02-16 01:39:00,20.8,17.8,30.20,NW,311,0.0,0.0,88,0.00,,,0.00,Wunderground v.1.15,2013-02-16 06:39:00,
2013-02-16 01:49:00,20.5,17.5,30.20,NW,311,0.0,0.0,88,0.00,,,0.00,Wunderground v.1.15,2013-02-16 06:49:00,
2013-02-16 01:59:00,20.2,17.5,30.20,NW,311,0.0,0.0,89,0.00,,,0.00,Wunderground v.1.15,2013-02-16 06:59:00,
2013-02-16 02:09:00,20.1,17.4,30.20,NW,311,0.0,0.0,89,0.00,,,0.00,Wunderground v.1.15,2013-02-16 07:09:00,
2013-02-16 02:19:00,20.0,17.5,30.19,NW,311,0.0,0.0,90,0.00,,,0.00,Wunderground v.1.15,2013-02-16 07:19:00,
2013-02-16 02:29:00,19.9,17.4,30.19,NW,311,0.0,0.0,90,0.00,,,0.00,Wunderground v.1.15,2013-02-16 07:29:00,
2013-02-16 02:39:00,19.8,17.3,30.19,NW,311,0.0,0.0,90,0.00,,,0.00,Wunderground v.1.15,2013-02-16 07:39:00,
2013-02-16 02:49:00,19.7,17.2,30.18,NW,311,0.0,0.0,90,0.00,,,0.00,Wunderground v.1.15,2013-02-16 07:49:00,
2013-02-16 02:59:00,19.6,17.1,30.18,NW,311,0.0,0.0,90,0.00,,,0.00,Wunderground v.1.15,2013-02-16 07:59:00,
2013-02-16 03:09:00,19.4,16.9,30.17,NW,311,0.0,0.0,90,0.00,,,0.00,Wunderground v.1.15,2013-02-16 08:09:00,
2013-02-16 03:19:00,19.3,17.1,30.17,NW,311,0.0,0.0,91,0.00,,,0.00,Wunderground v.1.15,2013-02-16 08:19:00,
2013-02-16 03:29:00,19.1,16.9,30.17,NW,311,0.0,0.0,91,0.00,,,0.00,Wunderground v.1.15,2013-02-16 08:29:00,
2013-02-16 03:39:00,18.9,16.7,30.16,NW,311,0.0,0.0,91,0.00,,,0.00,Wunderground v.1.15,2013-02-16 08:39:00,
2013-02-16 03:49:00,18.8,16.6,30.16,NW,311,0.0,0.0,91,0.00,,,0.00,Wunderground v.1.15,2013-02-16 08:49:00,
2013-02-16 03:59:00,18.4,16.2,30.16,NW,311,0.0,0.0,91,0.00,,,0.00,Wunderground v.1.15,2013-02-16 08:59:00,
2013-02-16 04:09:00,18.2,16.0,30.15,NW,311,0.0,0.0,91,0.00,,,0.00,Wunderground v.1.15,2013-02-16 09:09:00,
2013-02-16 04:19:00,18.2,16.3,30.15,NW,311,0.0,0.0,92,0.00,,,0.00,Wunderground v.1.15,2013-02-16 09:19:00,
2013-02-16 04:29:00,18.4,16.5,30.15,NW,311,0.0,0.0,92,0.00,,,0.00,Wunderground v.1.15,2013-02-16 09:29:00,
2013-02-16 04:39:00,18.9,17.0,30.15,NW,311,0.0,0.0,92,0.00,,,0.00,Wunderground v.1.15,2013-02-16 09:39:00,
2013-02-16 04:49:00,19.2,17.3,30.15,NW,311,0.0,0.0,92,0.00,,,0.00,Wunderground v.1.15,2013-02-16 09:49:00,
2013-02-16 04:59:00,19.7,17.8,30.15,NW,311,0.0,0.0,92,0.00,,,0.00,Wunderground v.1.15,2013-02-16 09:59:00,
2013-02-16 05:09:00,20.4,18.4,30.15,NW,311,0.0,0.0,92,0.00,,,0.00,Wunderground v.1.15,2013-02-16 10:09:00,
2013-02-16 05:19:00,20.8,18.8,30.15,NW,311,0.0,0.0,92,0.00,,,0.00,Wunderground v.1.15,2013-02-16 10:19:00,
2013-02-16 05:29:00,21.0,19.0,30.15,NW,311,0.0,0.0,92,0.00,,,0.00,Wunderground v.1.15,2013-02-16 10:29:00,
2013-02-16 05:34:00,21.1,18.9,30.15,NW,311,0.0,1.0,91,0.00,,,0.00,Wunderground v.1.15,2013-02-16 10:34:00,
2013-02-16 05:49:00,20.9,18.4,30.15,NW,311,0.0,0.0,90,0.00,,,0.00,Wunderground v.1.15,2013-02-16 10:49:00,
2013-02-16 05:59:00,20.9,18.4,30.15,NW,311,1.0,2.0,90,0.00,,,0.00,Wunderground v.1.15,2013-02-16 10:59:00,
2013-02-16 06:09:00,20.8,18.1,30.15,West,272,0.0,0.0,89,0.00,,,0.00,Wunderground v.1.15,2013-02-16 11:09:00,
2013-02-16 06:19:00,20.6,17.9,30.15,West,272,0.0,0.0,89,0.00,,,0.00,Wunderground v.1.15,2013-02-16 11:19:00,
2013-02-16 06:29:00,20.4,17.7,30.15,West,272,0.0,0.0,89,0.00,,,0.00,Wunderground v.1.15,2013-02-16 11:29:00,
2013-02-16 06:39:00,20.3,17.6,30.14,West,272,1.0,1.0,89,0.00,,,0.00,Wunderground v.1.15,2013-02-16 11:39:00,
2013-02-16 06:49:00,20.4,17.7,30.14,West,272,1.0,2.0,89,0.00,,,0.00,Wunderground v.1.15,2013-02-16 11:49:00,
2013-02-16 06:54:00,20.6,17.9,30.14,West,272,2.0,2.0,89,0.00,,,0.00,Wunderground v.1.15,2013-02-16 11:54:00,
2013-02-16 07:09:00,20.8,18.1,30.14,West,261,2.0,2.0,89,0.00,,,0.00,Wunderground v.1.15,2013-02-16 12:09:00,
2013-02-16 07:19:00,21.0,18.0,30.14,WNW,285,1.0,4.0,88,0.00,,,0.00,Wunderground v.1.15,2013-02-16 12:19:00,
2013-02-16 07:29:00,21.0,18.0,30.14,WNW,284,1.0,4.0,88,0.00,,,0.00,Wunderground v.1.15,2013-02-16 12:29:00,
2013-02-16 07:39:00,21.1,17.8,30.14,WSW,255,2.0,2.0,87,0.00,,,0.00,Wunderground v.1.15,2013-02-16 12:39:00,
2013-02-16 07:49:00,20.9,17.6,30.15,WSW,253,1.0,1.0,87,0.00,,,0.00,Wunderground v.1.15,2013-02-16 12:49:00,
2013-02-16 07:59:00,20.9,17.6,30.15,WSW,253,0.0,0.0,87,0.00,,,0.00,Wunderground v.1.15,2013-02-16 12:59:00,
2013-02-16 08:09:00,20.7,17.4,30.15,WSW,253,0.0,0.0,87,0.00,,,0.00,Wunderground v.1.15,2013-02-16 13:09:00,
2013-02-16 08:19:00,20.6,17.3,30.15,WSW,253,0.0,0.0,87,0.00,,,0.00,Wunderground v.1.15,2013-02-16 13:19:00,
2013-02-16 08:29:00,20.6,17.6,30.15,West,260,0.0,0.0,88,0.00,,,0.00,Wunderground v.1.15,2013-02-16 13:29:00,
2013-02-16 08:39:00,21.2,17.9,30.15,West,272,2.0,3.0,87,0.00,,,0.00,Wunderground v.1.15,2013-02-16 13:39:00,
2013-02-16 08:49:00,21.9,18.1,30.15,West,263,4.0,4.0,85,0.00,,,0.00,Wunderground v.1.15,2013-02-16 13:49:00,
2013-02-16 08:54:00,22.2,18.4,30.15,WSW,254,3.0,5.0,85,0.00,,,0.00,Wunderground v.1.15,2013-02-16 13:54:00,
2013-02-16 09:09:00,22.4,18.0,30.15,NW,305,4.0,4.0,83,0.00,,,0.00,Wunderground v.1.15,2013-02-16 14:09:00,
2013-02-16 09:19:00,22.2,17.8,30.15,WNW,287,5.0,5.0,83,0.00,,,0.00,Wunderground v.1.15,2013-02-16 14:19:00,
2013-02-16 09:29:00,22.4,17.7,30.15,NE,35,4.0,6.0,82,0.00,,,0.00,Wunderground v.1.15,2013-02-16 14:29:00,
2013-02-16 09:39:00,22.5,17.8,30.15,NW,325,4.0,4.0,82,0.00,,,0.00,Wunderground v.1.15,2013-02-16 14:39:00,
2013-02-16 09:49:00,22.7,18.0,30.15,WSW,252,4.0,4.0,82,0.00,,,0.00,Wunderground v.1.15,2013-02-16 14:49:00,
2013-02-16 09:59:00,22.8,17.6,30.15,NNW,342,5.0,5.0,80,0.00,,,0.00,Wunderground v.1.15,2013-02-16 14:59:00,
2013-02-16 10:09:00,23.0,17.5,30.15,WNW,295,4.0,5.0,79,0.00,,,0.00,Wunderground v.1.15,2013-02-16 15:09:00,
2013-02-16 10:19:00,23.2,17.7,30.15,NNW,334,4.0,4.0,79,0.00,,,0.00,Wunderground v.1.15,2013-02-16 15:19:00,
2013-02-16 10:29:00,23.3,17.5,30.15,SW,219,5.0,5.0,78,0.00,,,0.00,Wunderground v.1.15,2013-02-16 15:29:00,
2013-02-16 10:39:00,23.5,17.3,30.16,WNW,302,4.0,4.0,77,0.00,,,0.00,Wunderground v.1.15,2013-02-16 15:39:00,
2013-02-16 10:49:00,23.5,16.7,30.16,NW,313,4.0,4.0,75,0.00,,,0.00,Wunderground v.1.15,2013-02-16 15:49:00,
2013-02-16 10:59:00,23.6,17.1,30.16,SSW,205,5.0,7.0,76,0.00,,,0.00,Wunderground v.1.15,2013-02-16 15:59:00,
2013-02-16 11:09:00,23.6,16.5,30.16,WSW,242,6.0,6.0,74,0.00,,,0.00,Wunderground v.1.15,2013-02-16 16:09:00,
2013-02-16 11:19:00,23.6,16.2,30.16,NNW,339,6.0,6.0,73,0.00,,,0.00,Wunderground v.1.15,2013-02-16 16:19:00,
2013-02-16 11:29:00,23.8,15.8,30.15,WNW,282,6.0,8.0,71,0.00,,,0.00,Wunderground v.1.15,2013-02-16 16:29:00,
2013-02-16 11:39:00,23.9,15.9,30.16,WNW,284,7.0,7.0,71,0.00,,,0.00,Wunderground v.1.15,2013-02-16 16:39:00,
2013-02-16 11:49:00,24.9,17.1,30.15,WSW,250,5.0,8.0,72,0.00,,,0.00,Wunderground v.1.15,2013-02-16 16:49:00,
2013-02-16 11:59:00,25.3,15.9,30.15,NW,323,7.0,7.0,67,0.00,,,0.00,Wunderground v.1.15,2013-02-16 16:59:00,
2013-02-16 12:09:00,24.9,15.1,30.15,WSW,250,8.0,8.0,66,0.00,,,0.00,Wunderground v.1.15,2013-02-16 17:09:00,
2013-02-16 12:19:00,25.1,15.7,30.15,NW,310,7.0,10.0,67,0.00,,,0.00,Wunderground v.1.15,2013-02-16 17:19:00,
2013-02-16 12:29:00,25.6,15.8,30.14,West,278,7.0,7.0,66,0.00,,,0.00,Wunderground v.1.15,2013-02-16 17:29:00,
2013-02-16 12:39:00,25.1,17.3,30.14,WNW,294,6.0,12.0,72,0.00,,,0.00,Wunderground v.1.15,2013-02-16 17:39:00,
2013-02-16 12:49:00,24.8,15.0,30.14,SW,232,7.0,7.0,66,0.00,,,0.00,Wunderground v.1.15,2013-02-16 17:49:00,
2013-02-16 12:59:00,24.5,14.4,30.14,WNW,285,7.0,10.0,65,0.00,,,0.00,Wunderground v.1.15,2013-02-16 17:59:00,
2013-02-16 13:09:00,24.8,14.7,30.14,WSW,246,8.0,10.0,65,0.00,,,0.00,Wunderground v.1.15,2013-02-16 18:09:00,
2013-02-16 13:14:00,25.4,15.3,30.13,SW,227,8.0,10.0,65,0.00,,,0.00,Wunderground v.1.15,2013-02-16 18:14:00,
2013-02-16 13:29:00,24.9,14.1,30.13,NW,322,6.0,6.0,63,0.00,,,0.00,Wunderground v.1.15,2013-02-16 18:29:00,
2013-02-16 13:40:00,25.2,15.4,30.12,WSW,242,5.0,5.0,66,0.00,,,0.00,Wunderground v.1.15,2013-02-16 18:40:00,
2013-02-16 13:50:00,25.2,13.6,30.12,NW,305,6.0,6.0,61,0.00,,,0.00,Wunderground v.1.15,2013-02-16 18:50:00,
2013-02-16 14:00:00,24.9,14.4,30.12,West,263,6.0,10.0,64,0.00,,,0.00,Wunderground v.1.15,2013-02-16 19:00:00,
2013-02-16 14:10:00,25.1,13.9,30.13,West,269,8.0,10.0,62,0.00,,,0.00,Wunderground v.1.15,2013-02-16 19:10:00,
2013-02-16 14:20:00,25.6,14.0,30.13,WSW,258,5.0,6.0,61,0.00,,,0.00,Wunderground v.1.15,2013-02-16 19:20:00,
2013-02-16 14:30:00,26.2,13.0,30.12,West,273,7.0,7.0,57,0.00,,,0.00,Wunderground v.1.15,2013-02-16 19:30:00,
2013-02-16 14:40:00,25.2,13.6,30.12,NNW,340,7.0,9.0,61,0.00,,,0.00,Wunderground v.1.15,2013-02-16 19:40:00,
2013-02-16 14:50:00,24.4,14.3,30.13,West,273,7.0,7.0,65,0.00,,,0.00,Wunderground v.1.15,2013-02-16 19:50:00,
2013-02-16 15:00:00,24.1,14.7,30.13,SSW,213,5.0,5.0,67,0.00,,,0.00,Wunderground v.1.15,2013-02-16 20:00:00,
2013-02-16 15:10:00,24.4,13.6,30.13,NW,319,7.0,13.0,63,0.00,,,0.00,Wunderground v.1.15,2013-02-16 20:10:00,
2013-02-16 15:15:00,24.8,14.0,30.12,West,268,8.0,13.0,63,0.00,,,0.00,Wunderground v.1.15,2013-02-16 20:15:00,
2013-02-16 15:30:00,25.1,13.9,30.13,NW,313,8.0,8.0,62,0.00,,,0.00,Wunderground v.1.15,2013-02-16 20:30:00,
2013-02-16 15:40:00,24.3,13.1,30.13,NW,324,6.0,7.0,62,0.00,,,0.00,Wunderground v.1.15,2013-02-16 20:40:00,
2013-02-16 15:50:00,24.2,12.3,30.13,WNW,292,7.0,8.0,60,0.00,,,0.00,Wunderground v.1.15,2013-02-16 20:50:00,
2013-02-16 16:00:00,24.1,12.6,30.14,WNW,286,6.0,6.0,61,0.00,,,0.00,Wunderground v.1.15,2013-02-16 21:00:00,
2013-02-16 16:10:00,24.0,12.9,30.14,NW,308,6.0,6.0,62,0.00,,,0.00,Wunderground v.1.15,2013-02-16 21:10:00,
2013-02-16 16:20:00,24.0,12.5,30.14,WSW,258,5.0,8.0,61,0.00,,,0.00,Wunderground v.1.15,2013-02-16 21:20:00,
2013-02-16 16:30:00,23.9,12.8,30.15,NNW,329,5.0,6.0,62,0.00,,,0.00,Wunderground v.1.15,2013-02-16 21:30:00,
2013-02-16 16:40:00,23.7,12.6,30.15,NNW,338,5.0,5.0,62,0.00,,,0.00,Wunderground v.1.15,2013-02-16 21:40:00,
2013-02-16 16:50:00,23.3,11.8,30.15,SW,217,6.0,6.0,61,0.00,,,0.00,Wunderground v.1.15,2013-02-16 21:50:00,
2013-02-16 17:00:00,23.5,12.7,30.15,NNW,348,5.0,6.0,63,0.00,,,0.00,Wunderground v.1.15,2013-02-16 22:00:00,
2013-02-16 17:10:00,23.1,12.7,30.16,West,279,6.0,6.0,64,0.00,,,0.00,Wunderground v.1.15,2013-02-16 22:10:00,
2013-02-16 17:20:00,22.7,12.0,30.15,West,281,6.0,6.0,63,0.00,,,0.00,Wunderground v.1.15,2013-02-16 22:20:00,
2013-02-16 17:30:00,22.8,12.4,30.16,NNW,336,4.0,7.0,64,0.00,,,0.00,Wunderground v.1.15,2013-02-16 22:30:00,
2013-02-16 17:35:00,22.7,12.3,30.15,North,11,5.0,7.0,64,0.00,,,0.00,Wunderground v.1.15,2013-02-16 22:35:00,
2013-02-16 17:50:00,22.3,12.3,30.16,NW,313,7.0,7.0,65,0.00,,,0.00,Wunderground v.1.15,2013-02-16 22:50:00,
2013-02-16 18:00:00,22.1,12.1,30.16,NW,316,5.0,5.0,65,0.00,,,0.00,Wunderground v.1.15,2013-02-16 23:00:00,
2013-02-16 18:10:00,21.9,12.3,30.16,West,260,4.0,4.0,66,0.00,,,0.00,Wunderground v.1.15,2013-02-16 23:10:00,
2013-02-16 18:20:00,21.7,11.7,30.17,West,279,4.0,4.0,65,0.00,,,0.00,Wunderground v.1.15,2013-02-16 23:20:00,
2013-02-16 18:30:00,21.6,11.3,30.17,West,275,4.0,4.0,64,0.00,,,0.00,Wunderground v.1.15,2013-02-16 23:30:00,
2013-02-16 18:40:00,21.4,11.5,30.17,WNW,282,3.0,4.0,65,0.00,,,0.00,Wunderground v.1.15,2013-02-16 23:40:00,
2013-02-16 18:50:00,21.3,11.4,30.18,West,279,5.0,5.0,65,0.00,,,0.00,Wunderground v.1.15,2013-02-16 23:50:00,
2013-02-16 19:00:00,21.0,11.8,30.18,North,350,5.0,5.0,67,0.00,,,0.00,Wunderground v.1.15,2013-02-17 00:00:00,
2013-02-16 19:20:00,20.7,11.8,30.18,WNW,296,4.0,4.0,68,0.00,,,0.00,Wunderground v.1.15,2013-02-17 00:20:00,
2013-02-16 19:30:00,20.6,11.7,30.19,NW,310,5.0,5.0,68,0.00,,,0.00,Wunderground v.1.15,2013-02-17 00:30:00,
2013-02-16 19:40:00,20.6,11.7,30.19,WNW,286,5.0,5.0,68,0.00,,,0.00,Wunderground v.1.15,2013-02-17 00:40:00,
2013-02-16 19:49:00,20.4,11.8,30.19,NNW,329,6.0,6.0,69,0.00,,,0.00,Wunderground v.1.15,2013-02-17 00:49:00,
2013-02-16 19:59:00,20.3,12.4,30.19,NNW,341,6.0,6.0,71,0.00,,,0.00,Wunderground v.1.15,2013-02-17 00:59:00,
2013-02-16 20:09:00,19.8,12.8,30.19,NW,319,5.0,5.0,74,0.00,,,0.00,Wunderground v.1.15,2013-02-17 01:09:00,
2013-02-16 20:19:00,19.8,12.2,30.19,North,355,5.0,5.0,72,0.00,,,0.00,Wunderground v.1.15,2013-02-17 01:19:00,
2013-02-16 20:29:00,19.8,11.9,30.19,WNW,295,3.0,3.0,71,0.00,,,0.00,Wunderground v.1.15,2013-02-17 01:29:00,
2013-02-16 20:39:00,19.6,11.7,30.19,West,265,3.0,5.0,71,0.00,,,0.00,Wunderground v.1.15,2013-02-17 01:39:00,
2013-02-16 20:49:00,19.6,11.1,30.19,West,275,3.0,3.0,69,0.00,,,0.00,Wunderground v.1.15,2013-02-17 01:49:00,
2013-02-16 20:59:00,19.8,11.3,30.20,NW,307,3.0,3.0,69,0.00,,,0.00,Wunderground v.1.15,2013-02-17 01:59:00,
2013-02-16 21:09:00,19.8,10.6,30.20,NNW,335,2.0,2.0,67,0.00,,,0.00,Wunderground v.1.15,2013-02-17 02:09:00,
2013-02-16 21:19:00,19.8,10.3,30.20,North,355,4.0,7.0,66,0.00,,,0.00,Wunderground v.1.15,2013-02-17 02:19:00,
2013-02-16 21:29:00,19.5,9.6,30.20,WNW,284,4.0,4.0,65,0.00,,,0.00,Wunderground v.1.15,2013-02-17 02:29:00,
2013-02-16 21:39:00,19.4,9.5,30.20,NNW,334,3.0,3.0,65,0.00,,,0.00,Wunderground v.1.15,2013-02-17 02:39:00,
2013-02-16 21:49:00,19.4,9.5,30.20,NNW,347,3.0,3.0,65,0.00,,,0.00,Wunderground v.1.15,2013-02-17 02:49:00,
2013-02-16 21:59:00,19.3,9.4,30.19,NW,311,2.0,4.0,65,0.00,,,0.00,Wunderground v.1.15,2013-02-17 02:59:00,
2013-02-16 22:09:00,19.1,9.3,30.20,NW,311,2.0,2.0,65,0.00,,,0.00,Wunderground v.1.15,2013-02-17 03:09:00,
2013-02-16 22:19:00,18.7,9.2,30.20,NW,311,0.0,0.0,66,0.00,,,0.00,Wunderground v.1.15,2013-02-17 03:19:00,
2013-02-16 22:29:00,18.3,9.2,30.20,NW,311,0.0,0.0,67,0.00,,,0.00,Wunderground v.1.15,2013-02-17 03:29:00,
2013-02-16 22:39:00,18.0,9.2,30.20,NW,311,0.0,0.0,68,0.00,,,0.00,Wunderground v.1.15,2013-02-17 03:39:00,
2013-02-16 22:49:00,17.7,9.2,30.20,NW,311,0.0,0.0,69,0.00,,,0.00,Wunderground v.1.15,2013-02-17 03:49:00,
2013-02-16 22:59:00,17.5,9.4,30.20,NW,311,0.0,0.0,70,0.00,,,0.00,Wunderground v.1.15,2013-02-17 03:59:00,
2013-02-16 23:09:00,17.6,9.8,30.20,WSW,243,1.0,1.0,71,0.00,,,0.00,Wunderground v.1.15,2013-02-17 04:09:00,
2013-02-16 23:19:00,18.0,10.2,30.20,NW,305,2.0,2.0,71,0.00,,,0.00,Wunderground v.1.15,2013-02-17 04:19:00,
2013-02-16 23:29:00,18.2,10.4,30.20,WNW,298,1.0,1.0,71,0.00,,,0.00,Wunderground v.1.15,2013-02-17 04:29:00,
2013-02-16 23:39:00,18.2,10.7,30.20,WNW,298,0.0,3.0,72,0.00,,,0.00,Wunderground v.1.15,2013-02-17 04:39:00,
2013-02-16 23:49:00,18.4,11.2,30.20,West,275,2.0,2.0,73,0.00,,,0.00,Wunderground v.1.15,2013-02-17 04:49:00,
2013-02-16 23:59:00,18.4,12.4,30.20,West,275,2.0,2.0,77,0.00,,,0.00,Wunderground v.1.15,2013-02-17 04:59:00,